<?xml version="1.0" encoding="UTF-8" standalone="no" ?>
<gpx xmlns="http://www.topografix.com/GPX/1/1" creator="MapSource 6.15.5" version="1.1" xmlns:xsi="http://www.w3.org/2001/XMLSchema-instance" xsi:schemaLocation="http://www.topografix.com/GPX/1/1 http://www.topografix.com/GPX/1/1/gpx.xsd">

  <metadata>
    <link href="http://www.garmin.com">
      <text>Garmin International</text>
    </link>
    <time>2013-11-09T18:27:47Z</time>
    <bounds maxlat="51.9072635" maxlon="7.2055876" minlat="51.8573445" minlon="7.1141678"/>
  </metadata>

  <trk>
    <name>Track</name>
    <extensions>
      <gpxx:TrackExtension xmlns:gpxx="http://www.garmin.com/xmlschemas/GpxExtensions/v3">
        <gpxx:DisplayColor>White</gpxx:DisplayColor>
      </gpxx:TrackExtension>
    </extensions>
    <trkseg>
      <trkpt lat="51.8923861" lon="7.1875748">
        <ele>73.2851563</ele>
      </trkpt>
      <trkpt lat="51.8918112" lon="7.1883644">
        <ele>73.9687500</ele>
      </trkpt>
      <trkpt lat="51.8913621" lon="7.1888250">
        <ele>73.9062500</ele>
      </trkpt>
      <trkpt lat="51.8910746" lon="7.1892417">
        <ele>73.8828125</ele>
      </trkpt>
      <trkpt lat="51.8907332" lon="7.1897023">
        <ele>74.0664063</ele>
      </trkpt>
      <trkpt lat="51.8905536" lon="7.1899654">
        <ele>74.0664063</ele>
      </trkpt>
      <trkpt lat="51.8904568" lon="7.1901312">
        <ele>62.1423340</ele>
        <time>2013-11-09T15:35:36Z</time>
      </trkpt>
      <trkpt lat="51.8904359" lon="7.1901146">
        <ele>62.1423340</ele>
        <time>2013-11-09T15:35:37Z</time>
      </trkpt>
      <trkpt lat="51.8902852" lon="7.1907608">
        <ele>61.6617432</ele>
        <time>2013-11-09T15:35:49Z</time>
      </trkpt>
      <trkpt lat="51.8898776" lon="7.1911801">
        <ele>61.1810303</ele>
        <time>2013-11-09T15:36:02Z</time>
      </trkpt>
      <trkpt lat="51.8895864" lon="7.1914530">
        <ele>60.7003174</ele>
        <time>2013-11-09T15:36:15Z</time>
      </trkpt>
      <trkpt lat="51.8895864" lon="7.1914530">
        <ele>59.7391357</ele>
        <time>2013-11-09T15:36:24Z</time>
      </trkpt>
      <trkpt lat="51.8893290" lon="7.1904230">
        <ele>59.2584229</ele>
        <time>2013-11-09T15:36:28Z</time>
      </trkpt>
      <trkpt lat="51.8884956" lon="7.1915852">
        <ele>59.2584229</ele>
        <time>2013-11-09T15:36:49Z</time>
      </trkpt>
      <trkpt lat="51.8874656" lon="7.1925754">
        <ele>58.2971191</ele>
        <time>2013-11-09T15:37:20Z</time>
      </trkpt>
      <trkpt lat="51.8868798" lon="7.1931237">
        <ele>58.7777100</ele>
        <time>2013-11-09T15:37:38Z</time>
      </trkpt>
      <trkpt lat="51.8862132" lon="7.1938313">
        <ele>58.7777100</ele>
        <time>2013-11-09T15:38:00Z</time>
      </trkpt>
      <trkpt lat="51.8855874" lon="7.1944287">
        <ele>58.7777100</ele>
        <time>2013-11-09T15:38:19Z</time>
      </trkpt>
      <trkpt lat="51.8849855" lon="7.1949603">
        <ele>56.8551025</ele>
        <time>2013-11-09T15:38:38Z</time>
      </trkpt>
      <trkpt lat="51.8840229" lon="7.1959168">
        <ele>56.3745117</ele>
        <time>2013-11-09T15:39:07Z</time>
      </trkpt>
      <trkpt lat="51.8837331" lon="7.1964663">
        <ele>56.3745117</ele>
        <time>2013-11-09T15:39:19Z</time>
      </trkpt>
      <trkpt lat="51.8836394" lon="7.1965513">
        <ele>56.8551025</ele>
        <time>2013-11-09T15:39:22Z</time>
      </trkpt>
      <trkpt lat="51.8832601" lon="7.1967664">
        <ele>56.3745117</ele>
        <time>2013-11-09T15:39:35Z</time>
      </trkpt>
      <trkpt lat="51.8832375" lon="7.1967979">
        <ele>56.3745117</ele>
        <time>2013-11-09T15:39:36Z</time>
      </trkpt>
      <trkpt lat="51.8830010" lon="7.1969413">
        <ele>56.8551025</ele>
        <time>2013-11-09T15:39:44Z</time>
      </trkpt>
      <trkpt lat="51.8825765" lon="7.1974243">
        <ele>56.8551025</ele>
        <time>2013-11-09T15:39:59Z</time>
      </trkpt>
      <trkpt lat="51.8822034" lon="7.1980598">
        <ele>57.3358154</ele>
        <time>2013-11-09T15:40:16Z</time>
      </trkpt>
      <trkpt lat="51.8817287" lon="7.1987190">
        <ele>57.3358154</ele>
        <time>2013-11-09T15:40:33Z</time>
      </trkpt>
      <trkpt lat="51.8815065" lon="7.1989244">
        <ele>55.8937988</ele>
        <time>2013-11-09T15:40:40Z</time>
      </trkpt>
      <trkpt lat="51.8812771" lon="7.1982695">
        <ele>55.8937988</ele>
        <time>2013-11-09T15:40:51Z</time>
      </trkpt>
      <trkpt lat="51.8811144" lon="7.1982232">
        <ele>54.9323730</ele>
        <time>2013-11-09T15:40:57Z</time>
      </trkpt>
      <trkpt lat="51.8805775" lon="7.1988047">
        <ele>54.9323730</ele>
        <time>2013-11-09T15:41:14Z</time>
      </trkpt>
      <trkpt lat="51.8800288" lon="7.1993613">
        <ele>54.9323730</ele>
        <time>2013-11-09T15:41:31Z</time>
      </trkpt>
      <trkpt lat="51.8796067" lon="7.1996653">
        <ele>53.9711914</ele>
        <time>2013-11-09T15:41:43Z</time>
      </trkpt>
      <trkpt lat="51.8792917" lon="7.2000557">
        <ele>54.9323730</ele>
        <time>2013-11-09T15:41:55Z</time>
      </trkpt>
      <trkpt lat="51.8783766" lon="7.2009238">
        <ele>55.4130859</ele>
        <time>2013-11-09T15:42:25Z</time>
      </trkpt>
      <trkpt lat="51.8774967" lon="7.2017614">
        <ele>55.8937988</ele>
        <time>2013-11-09T15:42:53Z</time>
      </trkpt>
      <trkpt lat="51.8769273" lon="7.2022647">
        <ele>56.3745117</ele>
        <time>2013-11-09T15:43:11Z</time>
      </trkpt>
      <trkpt lat="51.8769346" lon="7.2024169">
        <ele>56.8551025</ele>
        <time>2013-11-09T15:43:17Z</time>
      </trkpt>
      <trkpt lat="51.8769811" lon="7.2024657">
        <ele>57.3358154</ele>
        <time>2013-11-09T15:43:19Z</time>
      </trkpt>
      <trkpt lat="51.8769583" lon="7.2025663">
        <ele>55.8937988</ele>
        <time>2013-11-09T15:43:23Z</time>
      </trkpt>
      <trkpt lat="51.8762928" lon="7.2032143">
        <ele>55.8937988</ele>
        <time>2013-11-09T15:43:43Z</time>
      </trkpt>
      <trkpt lat="51.8756250" lon="7.2039256">
        <ele>54.9323730</ele>
        <time>2013-11-09T15:44:05Z</time>
      </trkpt>
      <trkpt lat="51.8749648" lon="7.2046668">
        <ele>56.3745117</ele>
        <time>2013-11-09T15:44:29Z</time>
      </trkpt>
      <trkpt lat="51.8742445" lon="7.2055200">
        <ele>56.8551025</ele>
        <time>2013-11-09T15:44:55Z</time>
      </trkpt>
      <trkpt lat="51.8742084" lon="7.2055876">
        <ele>56.3745117</ele>
        <time>2013-11-09T15:44:57Z</time>
      </trkpt>
      <trkpt lat="51.8740898" lon="7.2055537">
        <ele>56.8551025</ele>
        <time>2013-11-09T15:45:03Z</time>
      </trkpt>
      <trkpt lat="51.8736057" lon="7.2049856">
        <ele>55.4130859</ele>
        <time>2013-11-09T15:45:20Z</time>
      </trkpt>
      <trkpt lat="51.8729900" lon="7.2043087">
        <ele>53.4904785</ele>
        <time>2013-11-09T15:45:39Z</time>
      </trkpt>
      <trkpt lat="51.8722309" lon="7.2033856">
        <ele>52.5291748</ele>
        <time>2013-11-09T15:46:00Z</time>
      </trkpt>
      <trkpt lat="51.8717328" lon="7.2022473">
        <ele>52.5291748</ele>
        <time>2013-11-09T15:46:21Z</time>
      </trkpt>
      <trkpt lat="51.8713046" lon="7.2017259">
        <ele>51.5678711</ele>
        <time>2013-11-09T15:46:35Z</time>
      </trkpt>
      <trkpt lat="51.8702542" lon="7.2011587">
        <ele>52.5291748</ele>
        <time>2013-11-09T15:47:03Z</time>
      </trkpt>
      <trkpt lat="51.8694572" lon="7.2007284">
        <ele>52.5291748</ele>
        <time>2013-11-09T15:47:25Z</time>
      </trkpt>
      <trkpt lat="51.8682625" lon="7.2000832">
        <ele>52.5291748</ele>
        <time>2013-11-09T15:47:57Z</time>
      </trkpt>
      <trkpt lat="51.8671315" lon="7.1994193">
        <ele>52.0485840</ele>
        <time>2013-11-09T15:48:28Z</time>
      </trkpt>
      <trkpt lat="51.8666267" lon="7.1993494">
        <ele>51.5678711</ele>
        <time>2013-11-09T15:48:41Z</time>
      </trkpt>
      <trkpt lat="51.8659785" lon="7.1989847">
        <ele>51.5678711</ele>
        <time>2013-11-09T15:48:59Z</time>
      </trkpt>
      <trkpt lat="51.8654785" lon="7.1985015">
        <ele>51.0871582</ele>
        <time>2013-11-09T15:49:14Z</time>
      </trkpt>
      <trkpt lat="51.8649892" lon="7.1980122">
        <ele>51.0871582</ele>
        <time>2013-11-09T15:49:29Z</time>
      </trkpt>
      <trkpt lat="51.8643627" lon="7.1974050">
        <ele>51.0871582</ele>
        <time>2013-11-09T15:49:49Z</time>
      </trkpt>
      <trkpt lat="51.8635905" lon="7.1969037">
        <ele>51.0871582</ele>
        <time>2013-11-09T15:50:12Z</time>
      </trkpt>
      <trkpt lat="51.8629672" lon="7.1966491">
        <ele>50.6065674</ele>
        <time>2013-11-09T15:50:28Z</time>
      </trkpt>
      <trkpt lat="51.8625997" lon="7.1964990">
        <ele>49.6452637</ele>
        <time>2013-11-09T15:50:37Z</time>
      </trkpt>
      <trkpt lat="51.8618306" lon="7.1961847">
        <ele>50.6065674</ele>
        <time>2013-11-09T15:50:55Z</time>
      </trkpt>
      <trkpt lat="51.8610627" lon="7.1958709">
        <ele>50.1259766</ele>
        <time>2013-11-09T15:51:13Z</time>
      </trkpt>
      <trkpt lat="51.8606333" lon="7.1956956">
        <ele>49.6452637</ele>
        <time>2013-11-09T15:51:23Z</time>
      </trkpt>
      <trkpt lat="51.8599076" lon="7.1954274">
        <ele>48.6839600</ele>
        <time>2013-11-09T15:51:40Z</time>
      </trkpt>
      <trkpt lat="51.8590044" lon="7.1952973">
        <ele>49.6452637</ele>
        <time>2013-11-09T15:52:01Z</time>
      </trkpt>
      <trkpt lat="51.8582692" lon="7.1952125">
        <ele>50.1259766</ele>
        <time>2013-11-09T15:52:19Z</time>
      </trkpt>
      <trkpt lat="51.8575094" lon="7.1951102">
        <ele>49.6452637</ele>
        <time>2013-11-09T15:52:38Z</time>
      </trkpt>
      <trkpt lat="51.8573566" lon="7.1950884">
        <ele>49.1645508</ele>
        <time>2013-11-09T15:52:42Z</time>
      </trkpt>
      <trkpt lat="51.8573445" lon="7.1947455">
        <ele>50.1259766</ele>
        <time>2013-11-09T15:52:50Z</time>
      </trkpt>
      <trkpt lat="51.8573737" lon="7.1947004">
        <ele>50.6065674</ele>
        <time>2013-11-09T15:52:51Z</time>
      </trkpt>
      <trkpt lat="51.8577627" lon="7.1939734">
        <ele>51.5678711</ele>
        <time>2013-11-09T15:53:08Z</time>
      </trkpt>
      <trkpt lat="51.8579207" lon="7.1931837">
        <ele>52.5291748</ele>
        <time>2013-11-09T15:53:23Z</time>
      </trkpt>
      <trkpt lat="51.8581267" lon="7.1919960">
        <ele>53.9711914</ele>
        <time>2013-11-09T15:53:44Z</time>
      </trkpt>
      <trkpt lat="51.8582624" lon="7.1908279">
        <ele>53.0097656</ele>
        <time>2013-11-09T15:54:03Z</time>
      </trkpt>
      <trkpt lat="51.8582850" lon="7.1895203">
        <ele>54.4517822</ele>
        <time>2013-11-09T15:54:23Z</time>
      </trkpt>
      <trkpt lat="51.8582834" lon="7.1884119">
        <ele>53.9711914</ele>
        <time>2013-11-09T15:54:40Z</time>
      </trkpt>
      <trkpt lat="51.8581775" lon="7.1874239">
        <ele>51.5678711</ele>
        <time>2013-11-09T15:54:54Z</time>
      </trkpt>
      <trkpt lat="51.8582534" lon="7.1864854">
        <ele>49.6452637</ele>
        <time>2013-11-09T15:55:04Z</time>
      </trkpt>
      <trkpt lat="51.8583155" lon="7.1858457">
        <ele>49.1645508</ele>
        <time>2013-11-09T15:55:11Z</time>
      </trkpt>
      <trkpt lat="51.8583380" lon="7.1856658">
        <ele>49.1645508</ele>
        <time>2013-11-09T15:55:13Z</time>
      </trkpt>
      <trkpt lat="51.8583960" lon="7.1852017">
        <ele>48.6839600</ele>
        <time>2013-11-09T15:55:19Z</time>
      </trkpt>
      <trkpt lat="51.8585487" lon="7.1842966">
        <ele>49.1645508</ele>
        <time>2013-11-09T15:55:32Z</time>
      </trkpt>
      <trkpt lat="51.8587984" lon="7.1834840">
        <ele>48.6839600</ele>
        <time>2013-11-09T15:55:45Z</time>
      </trkpt>
      <trkpt lat="51.8589396" lon="7.1832396">
        <ele>48.6839600</ele>
        <time>2013-11-09T15:55:51Z</time>
      </trkpt>
      <trkpt lat="51.8593783" lon="7.1825710">
        <ele>48.6839600</ele>
        <time>2013-11-09T15:56:05Z</time>
      </trkpt>
      <trkpt lat="51.8598206" lon="7.1817107">
        <ele>48.6839600</ele>
        <time>2013-11-09T15:56:21Z</time>
      </trkpt>
      <trkpt lat="51.8599639" lon="7.1812329">
        <ele>48.2033691</ele>
        <time>2013-11-09T15:56:28Z</time>
      </trkpt>
      <trkpt lat="51.8600552" lon="7.1807084">
        <ele>47.7225342</ele>
        <time>2013-11-09T15:56:35Z</time>
      </trkpt>
      <trkpt lat="51.8602898" lon="7.1792828">
        <ele>47.2418213</ele>
        <time>2013-11-09T15:56:56Z</time>
      </trkpt>
      <trkpt lat="51.8605229" lon="7.1778661">
        <ele>46.2806396</ele>
        <time>2013-11-09T15:57:18Z</time>
      </trkpt>
      <trkpt lat="51.8605257" lon="7.1777115">
        <ele>46.7612305</ele>
        <time>2013-11-09T15:57:20Z</time>
      </trkpt>
      <trkpt lat="51.8604374" lon="7.1765184">
        <ele>46.7612305</ele>
        <time>2013-11-09T15:57:37Z</time>
      </trkpt>
      <trkpt lat="51.8603253" lon="7.1750056">
        <ele>46.7612305</ele>
        <time>2013-11-09T15:57:59Z</time>
      </trkpt>
      <trkpt lat="51.8602753" lon="7.1739136">
        <ele>46.7612305</ele>
        <time>2013-11-09T15:58:15Z</time>
      </trkpt>
      <trkpt lat="51.8602516" lon="7.1725613">
        <ele>46.7612305</ele>
        <time>2013-11-09T15:58:36Z</time>
      </trkpt>
      <trkpt lat="51.8601899" lon="7.1710477">
        <ele>45.7999268</ele>
        <time>2013-11-09T15:58:57Z</time>
      </trkpt>
      <trkpt lat="51.8600651" lon="7.1697242">
        <ele>46.2806396</ele>
        <time>2013-11-09T15:59:17Z</time>
      </trkpt>
      <trkpt lat="51.8598984" lon="7.1685982">
        <ele>45.7999268</ele>
        <time>2013-11-09T15:59:34Z</time>
      </trkpt>
      <trkpt lat="51.8596299" lon="7.1671924">
        <ele>45.3192139</ele>
        <time>2013-11-09T15:59:56Z</time>
      </trkpt>
      <trkpt lat="51.8593731" lon="7.1658478">
        <ele>46.2806396</ele>
        <time>2013-11-09T16:00:17Z</time>
      </trkpt>
      <trkpt lat="51.8590918" lon="7.1643968">
        <ele>45.7999268</ele>
        <time>2013-11-09T16:00:39Z</time>
      </trkpt>
      <trkpt lat="51.8588437" lon="7.1631254">
        <ele>45.3192139</ele>
        <time>2013-11-09T16:01:01Z</time>
      </trkpt>
      <trkpt lat="51.8586410" lon="7.1620863">
        <ele>45.7999268</ele>
        <time>2013-11-09T16:01:18Z</time>
      </trkpt>
      <trkpt lat="51.8587461" lon="7.1618187">
        <ele>46.7612305</ele>
        <time>2013-11-09T16:01:23Z</time>
      </trkpt>
      <trkpt lat="51.8587915" lon="7.1617981">
        <ele>46.2806396</ele>
        <time>2013-11-09T16:01:24Z</time>
      </trkpt>
      <trkpt lat="51.8596242" lon="7.1614195">
        <ele>45.7999268</ele>
        <time>2013-11-09T16:01:44Z</time>
      </trkpt>
      <trkpt lat="51.8602445" lon="7.1611375">
        <ele>46.2806396</ele>
        <time>2013-11-09T16:02:01Z</time>
      </trkpt>
      <trkpt lat="51.8609287" lon="7.1608869">
        <ele>46.7612305</ele>
        <time>2013-11-09T16:02:17Z</time>
      </trkpt>
      <trkpt lat="51.8616484" lon="7.1606588">
        <ele>46.2806396</ele>
        <time>2013-11-09T16:02:35Z</time>
      </trkpt>
      <trkpt lat="51.8627913" lon="7.1603598">
        <ele>46.7612305</ele>
        <time>2013-11-09T16:03:02Z</time>
      </trkpt>
      <trkpt lat="51.8637672" lon="7.1601647">
        <ele>47.2418213</ele>
        <time>2013-11-09T16:03:26Z</time>
      </trkpt>
      <trkpt lat="51.8647857" lon="7.1599607">
        <ele>48.2033691</ele>
        <time>2013-11-09T16:03:50Z</time>
      </trkpt>
      <trkpt lat="51.8647789" lon="7.1597334">
        <ele>46.7612305</ele>
        <time>2013-11-09T16:03:54Z</time>
      </trkpt>
      <trkpt lat="51.8645725" lon="7.1587338">
        <ele>47.7225342</ele>
        <time>2013-11-09T16:04:14Z</time>
      </trkpt>
      <trkpt lat="51.8645725" lon="7.1587338">
        <ele>48.2033691</ele>
        <time>2013-11-09T16:04:17Z</time>
      </trkpt>
      <trkpt lat="51.8646883" lon="7.1592947">
        <ele>48.2033691</ele>
        <time>2013-11-09T16:04:31Z</time>
      </trkpt>
      <trkpt lat="51.8648866" lon="7.1599410">
        <ele>47.7225342</ele>
        <time>2013-11-09T16:04:44Z</time>
      </trkpt>
      <trkpt lat="51.8656323" lon="7.1597933">
        <ele>48.6839600</ele>
        <time>2013-11-09T16:05:03Z</time>
      </trkpt>
      <trkpt lat="51.8662785" lon="7.1596654">
        <ele>48.6839600</ele>
        <time>2013-11-09T16:05:19Z</time>
      </trkpt>
      <trkpt lat="51.8668679" lon="7.1595488">
        <ele>48.6839600</ele>
        <time>2013-11-09T16:05:32Z</time>
      </trkpt>
      <trkpt lat="51.8678024" lon="7.1593638">
        <ele>48.6839600</ele>
        <time>2013-11-09T16:05:54Z</time>
      </trkpt>
      <trkpt lat="51.8685532" lon="7.1592153">
        <ele>48.6839600</ele>
        <time>2013-11-09T16:06:12Z</time>
      </trkpt>
      <trkpt lat="51.8694020" lon="7.1590414">
        <ele>48.6839600</ele>
        <time>2013-11-09T16:06:32Z</time>
      </trkpt>
      <trkpt lat="51.8702925" lon="7.1588539">
        <ele>48.6839600</ele>
        <time>2013-11-09T16:06:53Z</time>
      </trkpt>
      <trkpt lat="51.8713644" lon="7.1586283">
        <ele>49.1645508</ele>
        <time>2013-11-09T16:07:16Z</time>
      </trkpt>
      <trkpt lat="51.8719301" lon="7.1585093">
        <ele>49.6452637</ele>
        <time>2013-11-09T16:07:33Z</time>
      </trkpt>
      <trkpt lat="51.8721754" lon="7.1584576">
        <ele>49.1645508</ele>
        <time>2013-11-09T16:07:39Z</time>
      </trkpt>
      <trkpt lat="51.8722070" lon="7.1581336">
        <ele>49.6452637</ele>
        <time>2013-11-09T16:07:44Z</time>
      </trkpt>
      <trkpt lat="51.8723112" lon="7.1567629">
        <ele>49.6452637</ele>
        <time>2013-11-09T16:08:04Z</time>
      </trkpt>
      <trkpt lat="51.8724034" lon="7.1555494">
        <ele>50.1259766</ele>
        <time>2013-11-09T16:08:22Z</time>
      </trkpt>
      <trkpt lat="51.8725595" lon="7.1534959">
        <ele>50.6065674</ele>
        <time>2013-11-09T16:08:52Z</time>
      </trkpt>
      <trkpt lat="51.8727182" lon="7.1514059">
        <ele>51.0871582</ele>
        <time>2013-11-09T16:09:23Z</time>
      </trkpt>
      <trkpt lat="51.8728228" lon="7.1500299">
        <ele>52.0485840</ele>
        <time>2013-11-09T16:09:44Z</time>
      </trkpt>
      <trkpt lat="51.8729676" lon="7.1481242">
        <ele>52.5291748</ele>
        <time>2013-11-09T16:10:12Z</time>
      </trkpt>
      <trkpt lat="51.8730821" lon="7.1466183">
        <ele>52.5291748</ele>
        <time>2013-11-09T16:10:34Z</time>
      </trkpt>
      <trkpt lat="51.8731952" lon="7.1451287">
        <ele>52.5291748</ele>
        <time>2013-11-09T16:10:56Z</time>
      </trkpt>
      <trkpt lat="51.8733085" lon="7.1436239">
        <ele>53.4904785</ele>
        <time>2013-11-09T16:11:19Z</time>
      </trkpt>
      <trkpt lat="51.8733862" lon="7.1425674">
        <ele>53.4904785</ele>
        <time>2013-11-09T16:11:34Z</time>
      </trkpt>
      <trkpt lat="51.8734851" lon="7.1412231">
        <ele>53.0097656</ele>
        <time>2013-11-09T16:11:55Z</time>
      </trkpt>
      <trkpt lat="51.8734054" lon="7.1407621">
        <ele>53.4904785</ele>
        <time>2013-11-09T16:12:02Z</time>
      </trkpt>
      <trkpt lat="51.8733755" lon="7.1406424">
        <ele>53.4904785</ele>
        <time>2013-11-09T16:12:04Z</time>
      </trkpt>
      <trkpt lat="51.8734175" lon="7.1400779">
        <ele>54.4517822</ele>
        <time>2013-11-09T16:12:14Z</time>
      </trkpt>
      <trkpt lat="51.8734932" lon="7.1398258">
        <ele>54.4517822</ele>
        <time>2013-11-09T16:12:26Z</time>
      </trkpt>
      <trkpt lat="51.8741385" lon="7.1389140">
        <ele>56.8551025</ele>
        <time>2013-11-09T16:12:44Z</time>
      </trkpt>
      <trkpt lat="51.8745898" lon="7.1382763">
        <ele>57.3358154</ele>
        <time>2013-11-09T16:13:00Z</time>
      </trkpt>
      <trkpt lat="51.8751141" lon="7.1375355">
        <ele>58.7777100</ele>
        <time>2013-11-09T16:13:18Z</time>
      </trkpt>
      <trkpt lat="51.8755689" lon="7.1368929">
        <ele>57.8165283</ele>
        <time>2013-11-09T16:13:34Z</time>
      </trkpt>
      <trkpt lat="51.8762354" lon="7.1359510">
        <ele>56.8551025</ele>
        <time>2013-11-09T16:13:53Z</time>
      </trkpt>
      <trkpt lat="51.8767601" lon="7.1352095">
        <ele>56.8551025</ele>
        <time>2013-11-09T16:14:10Z</time>
      </trkpt>
      <trkpt lat="51.8774154" lon="7.1342836">
        <ele>57.3358154</ele>
        <time>2013-11-09T16:14:31Z</time>
      </trkpt>
      <trkpt lat="51.8774714" lon="7.1337033">
        <ele>56.8551025</ele>
        <time>2013-11-09T16:14:41Z</time>
      </trkpt>
      <trkpt lat="51.8776163" lon="7.1328543">
        <ele>57.3358154</ele>
        <time>2013-11-09T16:14:54Z</time>
      </trkpt>
      <trkpt lat="51.8776370" lon="7.1316776">
        <ele>57.3358154</ele>
        <time>2013-11-09T16:15:12Z</time>
      </trkpt>
      <trkpt lat="51.8776734" lon="7.1305554">
        <ele>55.8937988</ele>
        <time>2013-11-09T16:15:29Z</time>
      </trkpt>
      <trkpt lat="51.8777952" lon="7.1302509">
        <ele>56.8551025</ele>
        <time>2013-11-09T16:15:34Z</time>
      </trkpt>
      <trkpt lat="51.8784442" lon="7.1291129">
        <ele>55.8937988</ele>
        <time>2013-11-09T16:15:54Z</time>
      </trkpt>
      <trkpt lat="51.8791520" lon="7.1279688">
        <ele>56.8551025</ele>
        <time>2013-11-09T16:16:18Z</time>
      </trkpt>
      <trkpt lat="51.8798246" lon="7.1269598">
        <ele>56.8551025</ele>
        <time>2013-11-09T16:16:39Z</time>
      </trkpt>
      <trkpt lat="51.8799635" lon="7.1267514">
        <ele>56.8551025</ele>
        <time>2013-11-09T16:16:44Z</time>
      </trkpt>
      <trkpt lat="51.8801317" lon="7.1268631">
        <ele>57.3358154</ele>
        <time>2013-11-09T16:16:48Z</time>
      </trkpt>
      <trkpt lat="51.8803879" lon="7.1270681">
        <ele>57.8165283</ele>
        <time>2013-11-09T16:16:55Z</time>
      </trkpt>
      <trkpt lat="51.8805177" lon="7.1266537">
        <ele>56.8551025</ele>
        <time>2013-11-09T16:17:01Z</time>
      </trkpt>
      <trkpt lat="51.8805436" lon="7.1265580">
        <ele>56.8551025</ele>
        <time>2013-11-09T16:17:03Z</time>
      </trkpt>
      <trkpt lat="51.8809932" lon="7.1250605">
        <ele>58.7777100</ele>
        <time>2013-11-09T16:17:28Z</time>
      </trkpt>
      <trkpt lat="51.8815619" lon="7.1235395">
        <ele>57.3358154</ele>
        <time>2013-11-09T16:17:53Z</time>
      </trkpt>
      <trkpt lat="51.8820843" lon="7.1221427">
        <ele>57.3358154</ele>
        <time>2013-11-09T16:18:16Z</time>
      </trkpt>
      <trkpt lat="51.8826165" lon="7.1207199">
        <ele>56.3745117</ele>
        <time>2013-11-09T16:18:39Z</time>
      </trkpt>
      <trkpt lat="51.8828041" lon="7.1202180">
        <ele>56.8551025</ele>
        <time>2013-11-09T16:18:47Z</time>
      </trkpt>
      <trkpt lat="51.8834879" lon="7.1192755">
        <ele>56.3745117</ele>
        <time>2013-11-09T16:19:07Z</time>
      </trkpt>
      <trkpt lat="51.8843352" lon="7.1181458">
        <ele>56.3745117</ele>
        <time>2013-11-09T16:19:32Z</time>
      </trkpt>
      <trkpt lat="51.8846590" lon="7.1181656">
        <ele>57.3358154</ele>
        <time>2013-11-09T16:19:40Z</time>
      </trkpt>
      <trkpt lat="51.8854351" lon="7.1186222">
        <ele>58.2971191</ele>
        <time>2013-11-09T16:20:00Z</time>
      </trkpt>
      <trkpt lat="51.8859987" lon="7.1189536">
        <ele>58.2971191</ele>
        <time>2013-11-09T16:20:15Z</time>
      </trkpt>
      <trkpt lat="51.8867010" lon="7.1193606">
        <ele>57.8165283</ele>
        <time>2013-11-09T16:20:32Z</time>
      </trkpt>
      <trkpt lat="51.8869491" lon="7.1194410">
        <ele>57.3358154</ele>
        <time>2013-11-09T16:20:38Z</time>
      </trkpt>
      <trkpt lat="51.8872496" lon="7.1192958">
        <ele>56.8551025</ele>
        <time>2013-11-09T16:20:45Z</time>
      </trkpt>
      <trkpt lat="51.8879775" lon="7.1181734">
        <ele>59.2584229</ele>
        <time>2013-11-09T16:21:08Z</time>
      </trkpt>
      <trkpt lat="51.8886841" lon="7.1168568">
        <ele>59.2584229</ele>
        <time>2013-11-09T16:21:33Z</time>
      </trkpt>
      <trkpt lat="51.8892673" lon="7.1156763">
        <ele>59.7391357</ele>
        <time>2013-11-09T16:21:53Z</time>
      </trkpt>
      <trkpt lat="51.8898251" lon="7.1145472">
        <ele>58.7777100</ele>
        <time>2013-11-09T16:22:13Z</time>
      </trkpt>
      <trkpt lat="51.8900263" lon="7.1141678">
        <ele>58.7777100</ele>
        <time>2013-11-09T16:22:20Z</time>
      </trkpt>
      <trkpt lat="51.8901951" lon="7.1144524">
        <ele>58.7777100</ele>
        <time>2013-11-09T16:22:26Z</time>
      </trkpt>
      <trkpt lat="51.8905049" lon="7.1152076">
        <ele>59.2584229</ele>
        <time>2013-11-09T16:22:39Z</time>
      </trkpt>
      <trkpt lat="51.8909453" lon="7.1162786">
        <ele>59.7391357</ele>
        <time>2013-11-09T16:22:58Z</time>
      </trkpt>
      <trkpt lat="51.8910408" lon="7.1165100">
        <ele>59.2584229</ele>
        <time>2013-11-09T16:23:02Z</time>
      </trkpt>
      <trkpt lat="51.8911736" lon="7.1168320">
        <ele>59.7391357</ele>
        <time>2013-11-09T16:23:07Z</time>
      </trkpt>
      <trkpt lat="51.8914910" lon="7.1176017">
        <ele>60.2197266</ele>
        <time>2013-11-09T16:23:21Z</time>
      </trkpt>
      <trkpt lat="51.8917797" lon="7.1183017">
        <ele>60.7003174</ele>
        <time>2013-11-09T16:23:33Z</time>
      </trkpt>
      <trkpt lat="51.8920313" lon="7.1189120">
        <ele>61.1810303</ele>
        <time>2013-11-09T16:23:44Z</time>
      </trkpt>
      <trkpt lat="51.8922750" lon="7.1195029">
        <ele>61.6617432</ele>
        <time>2013-11-09T16:23:54Z</time>
      </trkpt>
      <trkpt lat="51.8926556" lon="7.1202812">
        <ele>62.1423340</ele>
        <time>2013-11-09T16:24:08Z</time>
      </trkpt>
      <trkpt lat="51.8929104" lon="7.1207090">
        <ele>63.1036377</ele>
        <time>2013-11-09T16:24:18Z</time>
      </trkpt>
      <trkpt lat="51.8932244" lon="7.1212361">
        <ele>63.1036377</ele>
        <time>2013-11-09T16:24:28Z</time>
      </trkpt>
      <trkpt lat="51.8936087" lon="7.1218811">
        <ele>63.5843506</ele>
        <time>2013-11-09T16:24:40Z</time>
      </trkpt>
      <trkpt lat="51.8939534" lon="7.1224598">
        <ele>64.5456543</ele>
        <time>2013-11-09T16:24:53Z</time>
      </trkpt>
      <trkpt lat="51.8943278" lon="7.1230881">
        <ele>65.9876709</ele>
        <time>2013-11-09T16:25:06Z</time>
      </trkpt>
      <trkpt lat="51.8947712" lon="7.1238324">
        <ele>67.9102783</ele>
        <time>2013-11-09T16:25:24Z</time>
      </trkpt>
      <trkpt lat="51.8952260" lon="7.1250153">
        <ele>69.3522949</ele>
        <time>2013-11-09T16:25:47Z</time>
      </trkpt>
      <trkpt lat="51.8956212" lon="7.1261382">
        <ele>70.3134766</ele>
        <time>2013-11-09T16:26:09Z</time>
      </trkpt>
      <trkpt lat="51.8959278" lon="7.1270092">
        <ele>71.2749023</ele>
        <time>2013-11-09T16:26:27Z</time>
      </trkpt>
      <trkpt lat="51.8961670" lon="7.1276888">
        <ele>73.1976318</ele>
        <time>2013-11-09T16:26:42Z</time>
      </trkpt>
      <trkpt lat="51.8964498" lon="7.1284922">
        <ele>75.1202393</ele>
        <time>2013-11-09T16:26:59Z</time>
      </trkpt>
      <trkpt lat="51.8967202" lon="7.1292604">
        <ele>75.6008301</ele>
        <time>2013-11-09T16:27:16Z</time>
      </trkpt>
      <trkpt lat="51.8970076" lon="7.1301598">
        <ele>75.6008301</ele>
        <time>2013-11-09T16:27:34Z</time>
      </trkpt>
      <trkpt lat="51.8972277" lon="7.1311822">
        <ele>74.6395264</ele>
        <time>2013-11-09T16:27:54Z</time>
      </trkpt>
      <trkpt lat="51.8973987" lon="7.1319801">
        <ele>71.2749023</ele>
        <time>2013-11-09T16:28:04Z</time>
      </trkpt>
      <trkpt lat="51.8974436" lon="7.1321897">
        <ele>71.2749023</ele>
        <time>2013-11-09T16:28:06Z</time>
      </trkpt>
      <trkpt lat="51.8974761" lon="7.1323414">
        <ele>70.7941895</ele>
        <time>2013-11-09T16:28:08Z</time>
      </trkpt>
      <trkpt lat="51.8975571" lon="7.1327191">
        <ele>69.8328857</ele>
        <time>2013-11-09T16:28:13Z</time>
      </trkpt>
      <trkpt lat="51.8977839" lon="7.1337777">
        <ele>66.4682617</ele>
        <time>2013-11-09T16:28:26Z</time>
      </trkpt>
      <trkpt lat="51.8978444" lon="7.1340598">
        <ele>66.9489746</ele>
        <time>2013-11-09T16:28:30Z</time>
      </trkpt>
      <trkpt lat="51.8980663" lon="7.1350951">
        <ele>64.5456543</ele>
        <time>2013-11-09T16:28:44Z</time>
      </trkpt>
      <trkpt lat="51.8981435" lon="7.1354560">
        <ele>64.0650635</ele>
        <time>2013-11-09T16:28:48Z</time>
      </trkpt>
      <trkpt lat="51.8982237" lon="7.1356506">
        <ele>63.5843506</ele>
        <time>2013-11-09T16:28:50Z</time>
      </trkpt>
      <trkpt lat="51.8988702" lon="7.1365272">
        <ele>60.7003174</ele>
        <time>2013-11-09T16:29:04Z</time>
      </trkpt>
      <trkpt lat="51.8991663" lon="7.1369286">
        <ele>60.7003174</ele>
        <time>2013-11-09T16:29:11Z</time>
      </trkpt>
      <trkpt lat="51.8998735" lon="7.1378875">
        <ele>59.7391357</ele>
        <time>2013-11-09T16:29:30Z</time>
      </trkpt>
      <trkpt lat="51.9006554" lon="7.1389477">
        <ele>60.2197266</ele>
        <time>2013-11-09T16:29:54Z</time>
      </trkpt>
      <trkpt lat="51.9014623" lon="7.1398184">
        <ele>59.7391357</ele>
        <time>2013-11-09T16:30:17Z</time>
      </trkpt>
      <trkpt lat="51.9022472" lon="7.1406330">
        <ele>59.7391357</ele>
        <time>2013-11-09T16:30:39Z</time>
      </trkpt>
      <trkpt lat="51.9031263" lon="7.1415453">
        <ele>61.1810303</ele>
        <time>2013-11-09T16:31:04Z</time>
      </trkpt>
      <trkpt lat="51.9040679" lon="7.1425803">
        <ele>61.1810303</ele>
        <time>2013-11-09T16:31:30Z</time>
      </trkpt>
      <trkpt lat="51.9052161" lon="7.1439197">
        <ele>61.1810303</ele>
        <time>2013-11-09T16:32:02Z</time>
      </trkpt>
      <trkpt lat="51.9060470" lon="7.1447266">
        <ele>62.1423340</ele>
        <time>2013-11-09T16:32:25Z</time>
      </trkpt>
      <trkpt lat="51.9061090" lon="7.1448042">
        <ele>62.1423340</ele>
        <time>2013-11-09T16:32:27Z</time>
      </trkpt>
      <trkpt lat="51.9068439" lon="7.1457226">
        <ele>62.6229248</ele>
        <time>2013-11-09T16:32:48Z</time>
      </trkpt>
      <trkpt lat="51.9072635" lon="7.1462472">
        <ele>63.5843506</ele>
        <time>2013-11-09T16:33:01Z</time>
      </trkpt>
      <trkpt lat="51.9071211" lon="7.1464146">
        <ele>63.5843506</ele>
        <time>2013-11-09T16:33:06Z</time>
      </trkpt>
      <trkpt lat="51.9061518" lon="7.1474648">
        <ele>63.5843506</ele>
        <time>2013-11-09T16:33:34Z</time>
      </trkpt>
      <trkpt lat="51.9054441" lon="7.1479795">
        <ele>63.5843506</ele>
        <time>2013-11-09T16:33:53Z</time>
      </trkpt>
      <trkpt lat="51.9047097" lon="7.1485291">
        <ele>62.6229248</ele>
        <time>2013-11-09T16:34:11Z</time>
      </trkpt>
      <trkpt lat="51.9045821" lon="7.1487281">
        <ele>62.6229248</ele>
        <time>2013-11-09T16:34:15Z</time>
      </trkpt>
      <trkpt lat="51.9039261" lon="7.1503682">
        <ele>62.1423340</ele>
        <time>2013-11-09T16:34:43Z</time>
      </trkpt>
      <trkpt lat="51.9038446" lon="7.1505990">
        <ele>63.5843506</ele>
        <time>2013-11-09T16:34:47Z</time>
      </trkpt>
      <trkpt lat="51.9033396" lon="7.1520418">
        <ele>64.0650635</ele>
        <time>2013-11-09T16:35:14Z</time>
      </trkpt>
      <trkpt lat="51.9030967" lon="7.1534358">
        <ele>65.5070801</ele>
        <time>2013-11-09T16:35:36Z</time>
      </trkpt>
      <trkpt lat="51.9029816" lon="7.1541262">
        <ele>65.5070801</ele>
        <time>2013-11-09T16:35:46Z</time>
      </trkpt>
      <trkpt lat="51.9029962" lon="7.1544143">
        <ele>65.5070801</ele>
        <time>2013-11-09T16:35:50Z</time>
      </trkpt>
      <trkpt lat="51.9030771" lon="7.1547469">
        <ele>65.5070801</ele>
        <time>2013-11-09T16:35:55Z</time>
      </trkpt>
      <trkpt lat="51.9033594" lon="7.1559072">
        <ele>65.5070801</ele>
        <time>2013-11-09T16:36:13Z</time>
      </trkpt>
      <trkpt lat="51.9035628" lon="7.1570694">
        <ele>65.5070801</ele>
        <time>2013-11-09T16:36:31Z</time>
      </trkpt>
      <trkpt lat="51.9037324" lon="7.1582813">
        <ele>66.9489746</ele>
        <time>2013-11-09T16:36:50Z</time>
      </trkpt>
      <trkpt lat="51.9039192" lon="7.1596149">
        <ele>68.3908691</ele>
        <time>2013-11-09T16:37:11Z</time>
      </trkpt>
      <trkpt lat="51.9040736" lon="7.1607183">
        <ele>68.8715820</ele>
        <time>2013-11-09T16:37:28Z</time>
      </trkpt>
      <trkpt lat="51.9043049" lon="7.1622958">
        <ele>71.2749023</ele>
        <time>2013-11-09T16:37:53Z</time>
      </trkpt>
      <trkpt lat="51.9044489" lon="7.1632614">
        <ele>70.3134766</ele>
        <time>2013-11-09T16:38:07Z</time>
      </trkpt>
      <trkpt lat="51.9045957" lon="7.1642458">
        <ele>70.7941895</ele>
        <time>2013-11-09T16:38:22Z</time>
      </trkpt>
      <trkpt lat="51.9047253" lon="7.1651156">
        <ele>72.7169189</ele>
        <time>2013-11-09T16:38:37Z</time>
      </trkpt>
      <trkpt lat="51.9048606" lon="7.1660227">
        <ele>74.1588135</ele>
        <time>2013-11-09T16:38:56Z</time>
      </trkpt>
      <trkpt lat="51.9047362" lon="7.1667513">
        <ele>74.1588135</ele>
        <time>2013-11-09T16:39:09Z</time>
      </trkpt>
      <trkpt lat="51.9046585" lon="7.1681505">
        <ele>75.1202393</ele>
        <time>2013-11-09T16:39:32Z</time>
      </trkpt>
      <trkpt lat="51.9044728" lon="7.1686731">
        <ele>75.6008301</ele>
        <time>2013-11-09T16:39:44Z</time>
      </trkpt>
      <trkpt lat="51.9039631" lon="7.1693150">
        <ele>74.6395264</ele>
        <time>2013-11-09T16:40:01Z</time>
      </trkpt>
      <trkpt lat="51.9034923" lon="7.1699079">
        <ele>74.6395264</ele>
        <time>2013-11-09T16:40:16Z</time>
      </trkpt>
      <trkpt lat="51.9028211" lon="7.1707545">
        <ele>73.6782227</ele>
        <time>2013-11-09T16:40:35Z</time>
      </trkpt>
      <trkpt lat="51.9018914" lon="7.1719275">
        <ele>73.1976318</ele>
        <time>2013-11-09T16:41:02Z</time>
      </trkpt>
      <trkpt lat="51.9012375" lon="7.1727525">
        <ele>72.7169189</ele>
        <time>2013-11-09T16:41:22Z</time>
      </trkpt>
      <trkpt lat="51.9003911" lon="7.1738263">
        <ele>72.7169189</ele>
        <time>2013-11-09T16:41:46Z</time>
      </trkpt>
      <trkpt lat="51.8996951" lon="7.1747184">
        <ele>72.7169189</ele>
        <time>2013-11-09T16:42:07Z</time>
      </trkpt>
      <trkpt lat="51.8987422" lon="7.1759398">
        <ele>71.2749023</ele>
        <time>2013-11-09T16:42:34Z</time>
      </trkpt>
      <trkpt lat="51.8979987" lon="7.1768927">
        <ele>70.7941895</ele>
        <time>2013-11-09T16:42:57Z</time>
      </trkpt>
      <trkpt lat="51.8979285" lon="7.1769827">
        <ele>71.7554932</ele>
        <time>2013-11-09T16:42:59Z</time>
      </trkpt>
      <trkpt lat="51.8978200" lon="7.1771217">
        <ele>70.3134766</ele>
        <time>2013-11-09T16:43:02Z</time>
      </trkpt>
      <trkpt lat="51.8971899" lon="7.1778856">
        <ele>70.3134766</ele>
        <time>2013-11-09T16:43:21Z</time>
      </trkpt>
      <trkpt lat="51.8969991" lon="7.1781122">
        <ele>70.7941895</ele>
        <time>2013-11-09T16:43:28Z</time>
      </trkpt>
      <trkpt lat="51.8971682" lon="7.1796516">
        <ele>71.2749023</ele>
        <time>2013-11-09T16:43:50Z</time>
      </trkpt>
      <trkpt lat="51.8972254" lon="7.1801943">
        <ele>72.7169189</ele>
        <time>2013-11-09T16:44:00Z</time>
      </trkpt>
      <trkpt lat="51.8972254" lon="7.1802911">
        <ele>70.7941895</ele>
        <time>2013-11-09T16:44:04Z</time>
      </trkpt>
      <trkpt lat="51.8968216" lon="7.1807531">
        <ele>70.3134766</ele>
        <time>2013-11-09T16:44:15Z</time>
      </trkpt>
      <trkpt lat="51.8960005" lon="7.1818793">
        <ele>68.8715820</ele>
        <time>2013-11-09T16:44:42Z</time>
      </trkpt>
      <trkpt lat="51.8954649" lon="7.1826135">
        <ele>69.8328857</ele>
        <time>2013-11-09T16:45:01Z</time>
      </trkpt>
      <trkpt lat="51.8952307" lon="7.1828812">
        <ele>71.7554932</ele>
        <time>2013-11-09T16:45:13Z</time>
      </trkpt>
      <trkpt lat="51.8952588" lon="7.1831071">
        <ele>71.2749023</ele>
        <time>2013-11-09T16:45:17Z</time>
      </trkpt>
      <trkpt lat="51.8953314" lon="7.1833249">
        <ele>72.2362061</ele>
        <time>2013-11-09T16:45:23Z</time>
      </trkpt>
      <trkpt lat="51.8951701" lon="7.1835849">
        <ele>71.7554932</ele>
        <time>2013-11-09T16:45:36Z</time>
      </trkpt>
      <trkpt lat="51.8947323" lon="7.1842138">
        <ele>71.7554932</ele>
        <time>2013-11-09T16:45:56Z</time>
      </trkpt>
      <trkpt lat="51.8941348" lon="7.1850471">
        <ele>71.7554932</ele>
        <time>2013-11-09T16:46:20Z</time>
      </trkpt>
      <trkpt lat="51.8938049" lon="7.1855073">
        <ele>71.2749023</ele>
        <time>2013-11-09T16:46:37Z</time>
      </trkpt>
      <trkpt lat="51.8933670" lon="7.1861181">
        <ele>70.7941895</ele>
        <time>2013-11-09T16:46:53Z</time>
      </trkpt>
      <trkpt lat="51.8930757" lon="7.1868424">
        <ele>71.2749023</ele>
        <time>2013-11-09T16:47:10Z</time>
      </trkpt>
      <trkpt lat="51.8929884" lon="7.1876565">
        <ele>71.7554932</ele>
        <time>2013-11-09T16:47:27Z</time>
      </trkpt>
      <trkpt lat="51.8929792" lon="7.1878423">
        <ele>72.7169189</ele>
        <time>2013-11-09T16:47:31Z</time>
      </trkpt>
      <trkpt lat="51.8929788" lon="7.1878819">
        <ele>74.0664063</ele>
      </trkpt>
      <trkpt lat="51.8929608" lon="7.1878599">
        <ele>74.0664063</ele>
      </trkpt>
    </trkseg>
  </trk>

</gpx>
